createdAt,value
2023-03-17T00:00:07.673Z,11.00
2023-03-17T00:02:44.212Z,11.23
2023-03-17T00:05:39.400Z,10.43
2023-03-17T00:08:22.228Z,9.77
2023-03-17T00:10:52.178Z,10.68
2023-03-17T00:13:27.925Z,10.25
2023-03-17T00:16:04.780Z,10.73
2023-03-17T00:18:37.864Z,10.57
2023-03-17T00:21:25.533Z,10.50
2023-03-17T00:23:55.900Z,9.52
2023-03-17T00:26:25.687Z,10.00
2023-03-17T00:28:55.527Z,10.15
2023-03-17T00:31:31.902Z,10.05
2023-03-17T00:34:06.111Z,11.15
2023-03-17T00:36:37.838Z,10.25
2023-03-17T00:39:17.879Z,11.18
2023-03-17T00:41:51.940Z,11.27
2023-03-17T00:44:23.041Z,10.60
2023-03-17T00:46:53.739Z,11.68
2023-03-17T00:49:26.733Z,10.88
2023-03-17T00:51:58.274Z,11.27
2023-03-17T00:54:29.346Z,9.43
2023-03-17T00:57:03.829Z,10.00
2023-03-17T00:59:41.402Z,11.18
2023-03-17T01:02:14.286Z,12.38
2023-03-17T01:04:52.822Z,10.80
2023-03-17T01:07:33.615Z,11.38
2023-03-17T01:10:04.323Z,10.63
2023-03-17T01:12:35.165Z,10.23
2023-03-17T01:15:07.586Z,10.52
2023-03-17T01:17:46.399Z,10.07
2023-03-17T01:20:33.289Z,11.05
2023-03-17T01:23:05.339Z,10.52
2023-03-17T01:25:38.699Z,9.63
2023-03-17T01:28:16.423Z,9.95
2023-03-17T01:30:46.283Z,9.88
2023-03-17T01:33:20.131Z,10.00
2023-03-17T01:35:49.677Z,10.07
2023-03-17T01:38:19.320Z,8.85
2023-03-17T01:40:54.446Z,9.45
2023-03-17T01:43:26.470Z,10.55
2023-03-17T01:46:28.080Z,11.65
2023-03-17T01:49:15.228Z,10.45
2023-03-17T01:52:13.060Z,10.95
2023-03-17T01:54:51.488Z,10.45
2023-03-17T01:57:40.937Z,11.43
2023-03-17T02:00:18.340Z,11.18
2023-03-17T02:02:50.795Z,10.48
2023-03-17T02:05:28.495Z,11.80
2023-03-17T02:08:01.486Z,11.63
2023-03-17T02:10:38.730Z,11.05
2023-03-17T02:13:14.576Z,11.45
2023-03-17T02:15:50.294Z,12.35
2023-03-17T02:18:24.500Z,11.32
2023-03-17T02:21:02.549Z,11.95
2023-03-17T02:23:34.363Z,12.10
2023-03-17T02:26:04.533Z,12.30
2023-03-17T02:28:35.822Z,11.75
2023-03-17T02:31:08.095Z,11.43
2023-03-17T02:33:37.222Z,11.35
2023-03-17T02:36:06.662Z,10.85
2023-03-17T02:38:38.229Z,13.55
2023-03-17T02:41:10.287Z,12.55
2023-03-17T02:46:14.417Z,10.63
2023-03-17T02:48:43.825Z,11.68
2023-03-17T02:51:13.292Z,10.95
2023-03-17T02:53:42.438Z,11.95
2023-03-17T02:56:13.953Z,11.27
2023-03-17T02:58:45.292Z,11.50
2023-03-17T03:01:19.336Z,11.63
2023-03-17T03:03:50.837Z,10.75
2023-03-17T03:06:19.921Z,10.82
2023-03-17T03:08:51.413Z,11.23
2023-03-17T03:11:20.432Z,12.27
2023-03-17T03:13:49.902Z,11.60
2023-03-17T03:16:22.222Z,11.32
2023-03-17T03:18:51.469Z,12.02
2023-03-17T03:21:20.764Z,11.02
2023-03-17T03:23:51.532Z,12.02
2023-03-17T03:26:21.358Z,11.68
2023-03-17T03:28:52.548Z,12.75
2023-03-17T03:31:24.556Z,11.45
2023-03-17T03:33:54.442Z,11.23
2023-03-17T03:36:27.279Z,11.88
2023-03-17T03:38:59.269Z,12.63
2023-03-17T03:44:00.350Z,11.25
2023-03-17T03:46:34.299Z,11.93
2023-03-17T03:49:11.127Z,12.27
2023-03-17T03:51:47.864Z,12.82
2023-03-17T03:54:16.978Z,12.35
2023-03-17T03:56:46.132Z,13.48
2023-03-17T03:59:15.749Z,13.02
2023-03-17T04:01:49.779Z,13.32
2023-03-17T04:04:19.914Z,12.82
2023-03-17T04:06:51.596Z,12.75
2023-03-17T04:09:23.063Z,14.65
2023-03-17T04:11:52.531Z,12.50
2023-03-17T04:14:24.595Z,12.50
2023-03-17T04:16:53.543Z,11.70
2023-03-17T04:19:27.976Z,13.23
2023-03-17T04:21:59.398Z,13.65
2023-03-17T04:24:31.120Z,12.80
2023-03-17T04:27:00.027Z,13.25
2023-03-17T04:29:29.762Z,12.68
2023-03-17T04:32:01.937Z,13.07
2023-03-17T04:34:35.702Z,12.68
2023-03-17T04:37:04.774Z,12.80
2023-03-17T04:39:39.410Z,12.48
2023-03-17T04:42:11.983Z,14.07
2023-03-17T04:44:41.738Z,13.45
2023-03-17T04:47:10.537Z,13.60
2023-03-17T04:49:40.151Z,13.85
2023-03-17T04:52:13.053Z,13.75
2023-03-17T04:54:44.714Z,13.88
2023-03-17T04:57:19.443Z,14.23
2023-03-17T04:59:48.716Z,14.63
2023-03-17T05:02:19.443Z,13.65
2023-03-17T05:04:54.323Z,13.45
2023-03-17T05:07:23.095Z,15.18
2023-03-17T05:09:58.355Z,14.63
2023-03-17T05:12:27.577Z,15.55
2023-03-17T05:14:56.991Z,15.75
2023-03-17T05:17:25.844Z,15.20
2023-03-17T05:19:57.427Z,15.32
2023-03-17T05:22:28.940Z,14.20
2023-03-17T05:25:00.379Z,15.20
2023-03-17T05:27:32.048Z,14.18
2023-03-17T05:30:07.171Z,14.70
2023-03-17T05:32:39.808Z,18.83
2023-03-17T05:35:15.550Z,15.18
2023-03-17T05:37:47.497Z,14.38
2023-03-17T05:40:24.257Z,14.30
2023-03-17T05:42:53.563Z,15.32
2023-03-17T05:45:28.978Z,13.63
2023-03-17T05:47:59.063Z,14.65
2023-03-17T05:50:28.521Z,16.45
2023-03-17T05:52:57.771Z,15.68
2023-03-17T05:55:27.069Z,15.60
2023-03-17T05:57:56.657Z,14.55
2023-03-17T06:00:26.116Z,14.82
2023-03-17T06:02:58.455Z,15.10
2023-03-17T06:05:27.755Z,17.15
2023-03-17T06:07:57.336Z,15.15
2023-03-17T06:10:29.797Z,16.55
2023-03-17T06:13:03.854Z,16.17
2023-03-17T06:15:36.635Z,17.20
2023-03-17T06:18:08.864Z,17.10
2023-03-17T06:20:40.585Z,17.20
2023-03-17T06:23:09.702Z,16.15
2023-03-17T06:25:38.786Z,14.57
2023-03-17T06:28:14.067Z,16.02
2023-03-17T06:30:43.767Z,15.25
2023-03-17T06:33:12.779Z,14.93
2023-03-17T06:35:46.584Z,15.27
2023-03-17T06:38:16.553Z,15.25
2023-03-17T06:40:45.744Z,16.50
2023-03-17T06:43:15.181Z,16.33
2023-03-17T06:45:44.334Z,16.77
2023-03-17T06:48:16.590Z,17.98
2023-03-17T06:50:48.047Z,16.73
2023-03-17T06:53:18.232Z,18.30
2023-03-17T06:55:51.000Z,19.80
2023-03-17T06:58:23.468Z,20.17
2023-03-17T07:00:54.483Z,18.55
2023-03-17T07:03:27.750Z,19.45
2023-03-17T07:05:56.989Z,19.83
2023-03-17T07:08:27.325Z,20.13
2023-03-17T07:10:59.773Z,21.60
2023-03-17T07:13:32.383Z,18.67
2023-03-17T07:18:32.817Z,19.00
2023-03-17T07:21:03.094Z,17.42
2023-03-17T07:23:32.163Z,20.30
2023-03-17T07:26:02.046Z,20.45
2023-03-17T07:28:31.597Z,19.05
2023-03-17T07:31:01.141Z,18.75
2023-03-17T07:33:31.509Z,18.10
2023-03-17T07:36:03.801Z,19.30
2023-03-17T07:41:10.359Z,18.23
2023-03-17T07:43:41.110Z,18.30
2023-03-17T07:46:10.456Z,18.55
2023-03-17T07:48:42.839Z,18.27
2023-03-17T07:51:16.144Z,19.13
2023-03-17T07:53:47.390Z,18.42
2023-03-17T07:56:19.267Z,17.42
2023-03-17T07:58:49.844Z,19.48
2023-03-17T08:01:19.232Z,18.13
2023-03-17T08:03:51.435Z,18.63
2023-03-17T08:06:27.151Z,19.90
2023-03-17T08:08:57.181Z,20.50
2023-03-17T08:11:28.992Z,19.48
2023-03-17T08:14:03.214Z,22.80
2023-03-17T08:16:33.121Z,23.80
2023-03-17T08:19:04.920Z,22.38
2023-03-17T08:21:37.265Z,25.30
2023-03-17T08:24:07.199Z,24.90
2023-03-17T08:26:36.690Z,26.48
2023-03-17T08:29:08.918Z,25.70
2023-03-17T08:31:38.118Z,24.50
2023-03-17T08:34:09.491Z,23.45
2023-03-17T08:36:43.953Z,22.42
2023-03-17T08:39:13.512Z,23.67
2023-03-17T08:41:43.811Z,23.52
2023-03-17T08:44:15.820Z,22.33
2023-03-17T08:46:49.822Z,22.27
2023-03-17T08:49:19.372Z,20.52
2023-03-17T08:51:49.534Z,19.83
2023-03-17T08:54:19.827Z,20.83
2023-03-17T08:56:55.796Z,20.58
2023-03-17T08:59:28.219Z,21.30
2023-03-17T09:01:57.420Z,19.75
2023-03-17T09:04:27.140Z,21.02
2023-03-17T09:07:03.323Z,19.42
2023-03-17T09:09:37.157Z,20.23
2023-03-17T09:14:43.819Z,20.80
2023-03-17T09:17:15.020Z,21.95
2023-03-17T09:19:44.227Z,21.92
2023-03-17T09:22:15.267Z,20.80
2023-03-17T09:24:44.497Z,22.15
2023-03-17T09:27:14.365Z,23.02
2023-03-17T09:29:43.778Z,24.85
2023-03-17T09:32:13.601Z,23.48
2023-03-17T09:34:43.416Z,23.60
2023-03-17T09:37:12.623Z,22.02
2023-03-17T09:39:42.234Z,19.38
2023-03-17T09:42:41.106Z,21.35
2023-03-17T09:45:28.588Z,21.95
2023-03-17T09:48:16.259Z,20.08
2023-03-17T09:51:09.423Z,19.98
2023-03-17T09:53:49.340Z,20.73
2023-03-17T09:56:20.573Z,21.15
2023-03-17T09:59:28.551Z,20.02
2023-03-17T10:02:01.475Z,21.70
2023-03-17T10:04:33.137Z,21.08
2023-03-17T10:07:05.280Z,24.13
2023-03-17T10:09:51.856Z,21.20
2023-03-17T10:12:39.484Z,22.92
2023-03-17T10:15:17.413Z,23.80
2023-03-17T10:17:49.899Z,25.33
2023-03-17T10:20:36.703Z,24.02
2023-03-17T10:23:12.748Z,27.42
2023-03-17T10:25:44.227Z,26.75
2023-03-17T10:28:28.822Z,28.17
2023-03-17T10:31:15.268Z,26.25
2023-03-17T10:33:47.231Z,25.90
2023-03-17T10:36:19.975Z,28.00
2023-03-17T10:38:59.427Z,26.77
2023-03-17T10:41:33.496Z,28.15
2023-03-17T10:44:02.947Z,25.58
2023-03-17T10:46:34.826Z,26.42
2023-03-17T10:49:08.791Z,24.98
2023-03-17T10:51:41.036Z,24.77
2023-03-17T10:54:18.056Z,28.30
2023-03-17T10:57:02.225Z,28.17
2023-03-17T10:59:38.179Z,27.90
2023-03-17T11:02:29.993Z,26.95
2023-03-17T11:05:06.549Z,25.52
2023-03-17T11:07:39.416Z,24.75
2023-03-17T11:10:19.497Z,25.05
2023-03-17T11:13:02.224Z,24.75
2023-03-17T11:15:48.313Z,25.52
2023-03-17T11:21:04.864Z,23.05
2023-03-17T11:26:53.001Z,23.45
2023-03-17T11:29:52.275Z,22.83
2023-03-17T11:32:33.806Z,23.20
2023-03-17T11:35:03.057Z,22.95
2023-03-17T11:37:58.342Z,23.35
2023-03-17T11:40:35.692Z,24.25
2023-03-17T11:43:44.394Z,22.42
2023-03-17T11:46:22.723Z,22.92
2023-03-17T11:49:15.962Z,21.77
2023-03-17T11:52:09.562Z,22.58
2023-03-17T11:54:49.464Z,21.20
2023-03-17T11:57:30.967Z,23.33
2023-03-17T12:00:17.683Z,19.98
2023-03-17T12:02:57.380Z,21.80
2023-03-17T12:05:33.156Z,20.75
2023-03-17T12:08:23.894Z,19.50
2023-03-17T12:10:57.034Z,19.35
2023-03-17T12:13:50.429Z,18.52
2023-03-17T12:17:01.648Z,15.55
2023-03-17T12:19:51.118Z,13.85
2023-03-17T12:22:29.688Z,13.40
2023-03-17T12:25:18.588Z,13.52
2023-03-17T12:28:16.710Z,14.77
2023-03-17T12:31:07.687Z,14.80
2023-03-17T12:33:59.422Z,13.75
2023-03-17T12:36:33.375Z,14.48
2023-03-17T12:39:10.854Z,14.07
2023-03-17T12:42:09.400Z,14.23
2023-03-17T12:45:21.101Z,14.25
2023-03-17T12:48:20.243Z,14.05
2023-03-17T12:51:11.227Z,13.93
2023-03-17T12:53:43.367Z,12.48
2023-03-17T12:56:27.382Z,14.05
2023-03-17T12:59:26.861Z,14.60
2023-03-17T13:02:06.783Z,13.27
2023-03-17T13:04:37.463Z,13.52
2023-03-17T13:07:16.315Z,13.52
2023-03-17T13:10:11.189Z,13.18
2023-03-17T13:12:45.273Z,14.48
2023-03-17T13:15:50.370Z,13.25
2023-03-17T13:18:24.145Z,13.07
2023-03-17T13:21:16.673Z,11.77
2023-03-17T13:23:48.553Z,13.10
2023-03-17T13:26:43.483Z,12.98
2023-03-17T13:29:36.066Z,11.98
2023-03-17T13:32:27.281Z,11.50
2023-03-17T13:35:17.337Z,12.48
2023-03-17T13:38:25.280Z,12.63
2023-03-17T13:41:18.935Z,11.90
2023-03-17T13:44:06.074Z,12.18
2023-03-17T13:46:44.675Z,11.65
2023-03-17T13:49:19.979Z,10.73
2023-03-17T13:51:59.841Z,11.45
2023-03-17T13:54:33.723Z,11.32
2023-03-17T13:57:36.169Z,11.68
2023-03-17T14:00:22.991Z,11.15
2023-03-17T14:03:16.875Z,10.90
2023-03-17T14:05:52.505Z,10.05
2023-03-17T14:08:31.335Z,12.23
2023-03-17T14:11:07.046Z,12.02
2023-03-17T14:13:52.661Z,10.18
2023-03-17T14:16:30.382Z,10.32
2023-03-17T14:19:10.235Z,10.13
2023-03-17T14:21:39.520Z,11.25
2023-03-17T14:24:24.471Z,9.63
2023-03-17T14:26:53.752Z,9.80
2023-03-17T14:29:29.468Z,9.45
2023-03-17T14:32:14.422Z,10.48
2023-03-17T14:34:54.768Z,10.02
2023-03-17T14:37:27.643Z,10.65
2023-03-17T14:40:03.871Z,10.40
2023-03-17T14:42:56.827Z,10.38
2023-03-17T14:45:33.267Z,10.32
2023-03-17T14:48:02.974Z,11.02
2023-03-17T14:50:34.065Z,11.27
2023-03-17T14:53:03.653Z,11.15
2023-03-17T14:55:43.166Z,10.23
2023-03-17T14:58:24.820Z,10.40
2023-03-17T15:01:08.403Z,10.55
2023-03-17T15:03:52.686Z,11.57
2023-03-17T15:06:27.763Z,11.15
2023-03-17T15:09:00.962Z,11.18
2023-03-17T15:11:41.075Z,10.35
2023-03-17T15:14:39.746Z,10.50
2023-03-17T15:17:37.194Z,11.65
2023-03-17T15:20:15.046Z,11.20
2023-03-17T15:22:49.323Z,10.43
2023-03-17T15:25:29.158Z,9.48
2023-03-17T15:27:58.773Z,9.63
2023-03-17T15:30:37.379Z,10.48
2023-03-17T15:33:34.752Z,10.05
2023-03-17T15:36:05.703Z,9.18
2023-03-17T15:38:35.011Z,9.68
2023-03-17T15:41:04.056Z,9.50
2023-03-17T15:43:33.312Z,10.95
2023-03-17T15:46:09.334Z,9.70
2023-03-17T15:48:38.703Z,9.75
2023-03-17T15:51:08.047Z,9.60
2023-03-17T15:53:41.034Z,9.52
2023-03-17T15:56:19.328Z,10.20
2023-03-17T15:58:52.753Z,8.80
2023-03-17T16:01:28.132Z,9.93
2023-03-17T16:03:57.889Z,10.25
2023-03-17T16:06:30.201Z,10.43
2023-03-17T16:08:59.230Z,8.55
2023-03-17T16:11:32.070Z,9.50
2023-03-17T16:14:01.833Z,8.82
2023-03-17T16:16:39.118Z,8.82
2023-03-17T16:19:15.765Z,9.98
2023-03-17T16:21:45.815Z,9.20
2023-03-17T16:24:26.615Z,9.57
2023-03-17T16:26:55.777Z,9.35
2023-03-17T16:29:25.317Z,8.00
2023-03-17T16:31:54.893Z,9.38
2023-03-17T16:34:27.039Z,8.60
2023-03-17T16:36:59.531Z,9.13
2023-03-17T16:39:28.938Z,8.07
2023-03-17T16:42:00.395Z,9.35
2023-03-17T16:44:29.934Z,8.73
2023-03-17T16:46:59.462Z,9.82
2023-03-17T16:49:29.336Z,8.80
2023-03-17T16:51:58.416Z,9.57
2023-03-17T16:54:31.827Z,10.43
2023-03-17T16:57:01.974Z,9.18
2023-03-17T16:59:32.243Z,10.07
2023-03-17T17:02:02.267Z,9.88
2023-03-17T17:04:38.889Z,9.93
2023-03-17T17:07:11.032Z,9.40
2023-03-17T17:09:40.282Z,10.70
2023-03-17T17:12:09.975Z,9.90
2023-03-17T17:14:42.022Z,10.48
2023-03-17T17:17:13.940Z,10.32
2023-03-17T17:19:46.288Z,10.43
2023-03-17T17:22:18.563Z,10.02
2023-03-17T17:24:48.311Z,9.68
2023-03-17T17:27:17.913Z,10.57
2023-03-17T17:29:47.552Z,10.85
2023-03-17T17:32:20.349Z,10.10
2023-03-17T17:34:50.256Z,9.82
2023-03-17T17:37:22.511Z,10.48
2023-03-17T17:39:55.126Z,9.25
2023-03-17T17:42:24.998Z,10.15
2023-03-17T17:44:57.930Z,10.45
2023-03-17T17:49:57.310Z,10.55
2023-03-17T17:52:28.738Z,10.18
2023-03-17T17:55:01.754Z,10.35
2023-03-17T17:57:33.557Z,10.90
2023-03-17T18:00:04.046Z,11.45
2023-03-17T18:02:38.315Z,11.35
2023-03-17T18:05:09.623Z,12.25
2023-03-17T18:07:40.160Z,11.50
2023-03-17T18:10:20.430Z,12.45
2023-03-17T18:12:51.042Z,12.40
2023-03-17T18:15:22.493Z,11.63
2023-03-17T18:17:54.982Z,12.27
2023-03-17T18:20:27.664Z,12.18
2023-03-17T18:23:01.311Z,12.75
2023-03-17T18:25:37.621Z,11.73
2023-03-17T18:28:10.459Z,12.75
2023-03-17T18:30:45.403Z,12.45
2023-03-17T18:33:18.661Z,12.27
2023-03-17T18:35:52.662Z,12.23
2023-03-17T18:38:25.784Z,13.23
2023-03-17T18:40:56.284Z,13.13
2023-03-17T18:43:26.396Z,12.95
2023-03-17T18:45:56.156Z,13.80
2023-03-17T18:48:27.295Z,13.90
2023-03-17T18:50:56.842Z,12.98
2023-03-17T18:53:33.672Z,12.88
2023-03-17T18:56:03.947Z,12.35
2023-03-17T18:58:34.320Z,11.80
2023-03-17T19:03:39.636Z,11.57
2023-03-17T19:06:16.727Z,12.88
2023-03-17T19:08:52.196Z,11.95
2023-03-17T19:11:22.761Z,13.32
2023-03-17T19:13:52.980Z,12.05
2023-03-17T19:16:31.215Z,13.68
2023-03-17T19:19:01.667Z,13.48
2023-03-17T19:21:31.525Z,12.35
2023-03-17T19:24:03.812Z,12.43
2023-03-17T19:26:34.923Z,12.68
2023-03-17T19:29:04.927Z,13.13
2023-03-17T19:31:41.857Z,13.10
2023-03-17T19:34:13.353Z,13.15
2023-03-17T19:36:46.953Z,12.95
2023-03-17T19:39:19.279Z,13.43
2023-03-17T19:41:55.477Z,13.43
2023-03-17T19:44:25.921Z,13.32
2023-03-17T19:46:55.455Z,13.85
2023-03-17T19:49:25.402Z,14.07
2023-03-17T19:51:55.182Z,13.85
2023-03-17T19:54:24.970Z,12.77
2023-03-17T19:56:56.968Z,12.75
2023-03-17T19:59:32.015Z,14.50
2023-03-17T20:02:01.454Z,13.18
2023-03-17T20:04:31.571Z,12.98
2023-03-17T20:07:01.748Z,12.57
2023-03-17T20:09:34.590Z,12.55
2023-03-17T20:12:09.819Z,12.40
2023-03-17T20:14:39.178Z,11.10
2023-03-17T20:17:09.364Z,11.32
2023-03-17T20:19:39.860Z,11.65
2023-03-17T20:22:10.979Z,11.48
2023-03-17T20:24:40.106Z,11.88
2023-03-17T20:27:15.913Z,12.98
2023-03-17T20:29:46.939Z,11.80
2023-03-17T20:32:17.778Z,11.65
2023-03-17T20:34:47.739Z,11.68
2023-03-17T20:37:17.609Z,11.40
2023-03-17T20:39:47.402Z,11.15
2023-03-17T20:42:20.513Z,11.82
2023-03-17T20:44:53.390Z,10.35
2023-03-17T20:47:25.343Z,10.73
2023-03-17T20:49:59.258Z,11.15
2023-03-17T20:52:30.335Z,12.70
2023-03-17T20:55:00.542Z,12.45
2023-03-17T20:57:30.706Z,11.73
2023-03-17T21:00:00.335Z,10.75
2023-03-17T21:02:30.008Z,11.45
2023-03-17T21:04:59.712Z,12.32
2023-03-17T21:07:29.117Z,10.85
2023-03-17T21:09:59.963Z,12.23
2023-03-17T21:12:29.557Z,12.13
2023-03-17T21:15:00.076Z,11.18
2023-03-17T21:17:29.652Z,11.65
2023-03-17T21:20:08.230Z,11.65
2023-03-17T21:22:41.436Z,11.13
2023-03-17T21:25:12.036Z,11.45
2023-03-17T21:27:42.231Z,10.38
2023-03-17T21:30:17.847Z,9.85
2023-03-17T21:32:47.370Z,10.65
2023-03-17T21:35:18.686Z,10.55
2023-03-17T21:37:48.463Z,11.85
2023-03-17T21:40:19.071Z,11.05
2023-03-17T21:42:49.811Z,11.38
2023-03-17T21:45:20.427Z,11.25
2023-03-17T21:47:52.943Z,10.65
2023-03-17T21:50:22.966Z,10.48
2023-03-17T21:52:54.952Z,11.40
2023-03-17T21:55:24.524Z,11.55
2023-03-17T21:57:53.781Z,11.00
2023-03-17T22:00:25.596Z,10.93
2023-03-17T22:02:55.422Z,10.52
2023-03-17T22:05:25.076Z,9.27
2023-03-17T22:07:57.788Z,11.13
2023-03-17T22:10:27.596Z,12.23
2023-03-17T22:12:58.500Z,10.73
2023-03-17T22:15:28.785Z,9.82
2023-03-17T22:17:58.173Z,10.10
2023-03-17T22:20:30.364Z,10.45
2023-03-17T22:22:59.891Z,10.50
2023-03-17T22:25:30.410Z,10.73
2023-03-17T22:28:02.435Z,10.30
2023-03-17T22:30:31.978Z,10.15
2023-03-17T22:33:01.196Z,10.43
2023-03-17T22:35:34.714Z,10.65
2023-03-17T22:38:08.296Z,11.13
2023-03-17T22:40:37.639Z,9.60
2023-03-17T22:43:06.775Z,10.02
2023-03-17T22:45:36.738Z,10.07
2023-03-17T22:48:09.204Z,11.05
2023-03-17T22:50:38.439Z,10.45
2023-03-17T22:53:08.285Z,10.23
2023-03-17T22:55:37.472Z,10.32
2023-03-17T22:58:07.011Z,10.05
2023-03-17T23:00:37.201Z,10.63
2023-03-17T23:03:07.246Z,9.82
2023-03-17T23:05:39.188Z,10.05
2023-03-17T23:08:08.651Z,10.02
2023-03-17T23:10:39.734Z,10.73
2023-03-17T23:13:09.397Z,9.45
2023-03-17T23:15:39.104Z,9.80
2023-03-17T23:18:08.097Z,10.48
2023-03-17T23:20:40.345Z,9.85
2023-03-17T23:23:11.939Z,9.68
2023-03-17T23:25:41.660Z,9.27
2023-03-17T23:28:12.033Z,8.85
2023-03-17T23:30:44.272Z,9.52
2023-03-17T23:33:21.624Z,8.68
2023-03-17T23:35:51.825Z,9.20
2023-03-17T23:38:23.999Z,9.93
2023-03-17T23:40:57.112Z,9.25
2023-03-17T23:43:28.958Z,9.20
2023-03-17T23:46:01.929Z,10.18
2023-03-17T23:48:34.396Z,9.75
2023-03-17T23:51:04.400Z,10.18
2023-03-17T23:53:33.781Z,10.48
2023-03-17T23:56:04.338Z,9.95
2023-03-17T23:58:34.380Z,11.65
